createdAt,value
2022-09-12T00:01:11.093Z,89.09
2022-09-12T00:03:38.960Z,89.22
2022-09-12T00:06:22.883Z,89.15
2022-09-12T00:08:51.332Z,89.11
2022-09-12T00:11:18.399Z,89.13
2022-09-12T00:13:45.224Z,89.21
2022-09-12T00:16:21.984Z,89.29
2022-09-12T00:18:49.357Z,89.20
2022-09-12T00:21:17.578Z,89.27
2022-09-12T00:23:45.629Z,89.20
2022-09-12T00:26:13.557Z,89.25
2022-09-12T00:28:41.949Z,89.12
2022-09-12T00:31:14.442Z,89.21
2022-09-12T00:33:42.956Z,89.17
2022-09-12T00:36:12.858Z,89.13
2022-09-12T00:38:42.157Z,89.09
2022-09-12T00:41:20.532Z,89.18
2022-09-12T00:43:51.892Z,89.23
2022-09-12T00:46:36.268Z,89.37
2022-09-12T00:49:08.079Z,89.34
2022-09-12T00:51:37.833Z,89.39
2022-09-12T00:54:09.933Z,89.51
2022-09-12T00:56:41.157Z,89.35
2022-09-12T00:59:31.509Z,89.36
2022-09-12T01:01:58.665Z,89.44
2022-09-12T01:04:28.074Z,89.48
2022-09-12T01:06:58.680Z,89.70
2022-09-12T01:09:25.846Z,89.46
2022-09-12T01:11:53.705Z,89.44
2022-09-12T01:14:21.004Z,89.47
2022-09-12T01:16:49.945Z,89.56
2022-09-12T01:19:54.164Z,89.48
2022-09-12T01:22:49.989Z,89.78
2022-09-12T01:25:38.008Z,89.86
2022-09-12T01:28:39.596Z,89.99
2022-09-12T01:31:13.625Z,89.99
2022-09-12T01:33:56.621Z,90.26
2022-09-12T01:37:04.886Z,90.21
2022-09-12T01:39:48.766Z,90.34
2022-09-12T01:42:47.056Z,90.26
2022-09-12T01:45:23.855Z,90.35
2022-09-12T01:47:59.768Z,90.20
2022-09-12T01:50:32.309Z,90.10
2022-09-12T01:53:12.949Z,90.13
2022-09-12T01:55:52.309Z,90.26
2022-09-12T01:58:27.113Z,90.25
2022-09-12T02:01:09.323Z,90.12
2022-09-12T02:04:09.094Z,90.20
2022-09-12T02:06:52.400Z,90.25
2022-09-12T02:09:28.411Z,90.31
2022-09-12T02:11:59.044Z,90.35
2022-09-12T02:14:32.513Z,90.52
2022-09-12T02:17:07.480Z,90.33
2022-09-12T02:19:39.387Z,90.40
2022-09-12T02:22:07.931Z,90.28
2022-09-12T02:24:42.331Z,90.21
2022-09-12T02:27:28.106Z,90.21
2022-09-12T02:29:55.169Z,90.04
2022-09-12T02:32:36.405Z,89.92
2022-09-12T02:35:14.577Z,89.84
2022-09-12T02:37:53.218Z,89.89
2022-09-12T02:40:20.257Z,89.93
2022-09-12T02:42:47.150Z,89.99
2022-09-12T02:45:14.055Z,89.88
2022-09-12T02:47:56.385Z,89.70
2022-09-12T02:50:23.722Z,89.47
2022-09-12T02:52:53.793Z,89.63
2022-09-12T02:55:20.812Z,89.76
2022-09-12T02:57:47.556Z,89.70
2022-09-12T03:00:14.804Z,89.64
2022-09-12T03:03:16.998Z,89.89
2022-09-12T03:05:49.943Z,89.86
2022-09-12T03:08:38.797Z,89.95
2022-09-12T03:11:32.529Z,89.94
2022-09-12T03:14:17.245Z,90.00
2022-09-12T03:17:04.453Z,89.98
2022-09-12T03:19:43.141Z,90.02
2022-09-12T03:22:32.886Z,90.02
2022-09-12T03:25:15.768Z,89.90
2022-09-12T03:28:07.403Z,90.03
2022-09-12T03:30:46.083Z,90.05
2022-09-12T03:33:23.373Z,89.82
2022-09-12T03:35:51.668Z,89.99
2022-09-12T03:38:19.141Z,90.02
2022-09-12T03:40:49.316Z,89.94
2022-09-12T03:43:18.321Z,89.55
2022-09-12T03:45:45.113Z,89.90
2022-09-12T03:48:12.113Z,89.98
2022-09-12T03:50:38.869Z,89.82
2022-09-12T03:53:05.683Z,89.89
2022-09-12T03:55:32.578Z,89.81
2022-09-12T03:57:59.537Z,89.71
2022-09-12T04:00:26.331Z,89.92
2022-09-12T04:02:57.291Z,89.83
2022-09-12T04:05:25.253Z,89.84
2022-09-12T04:07:52.666Z,89.76
2022-09-12T04:10:19.493Z,89.76
2022-09-12T04:12:46.260Z,89.76
2022-09-12T04:15:13.252Z,89.76
2022-09-12T04:17:40.022Z,89.86
2022-09-12T04:20:07.416Z,89.70
2022-09-12T04:22:34.237Z,89.66
2022-09-12T04:25:01.180Z,89.77
2022-09-12T04:27:28.288Z,89.78
2022-09-12T04:29:56.410Z,89.86
2022-09-12T04:32:23.328Z,89.73
2022-09-12T04:34:50.222Z,89.67
2022-09-12T04:37:17.064Z,89.31
2022-09-12T04:39:43.988Z,89.52
2022-09-12T04:42:10.803Z,89.50
2022-09-12T04:44:37.712Z,89.15
2022-09-12T04:47:04.576Z,89.25
2022-09-12T04:49:31.673Z,89.38
2022-09-12T04:51:58.590Z,89.38
2022-09-12T04:54:26.044Z,89.25
2022-09-12T04:56:54.830Z,89.48
2022-09-12T04:59:22.456Z,89.41
2022-09-12T05:01:49.623Z,89.23
2022-09-12T05:04:16.611Z,89.25
2022-09-12T05:06:44.217Z,89.24
2022-09-12T05:09:12.705Z,89.17
2022-09-12T05:12:03.328Z,89.71
2022-09-12T05:14:28.450Z,89.31
2022-09-12T05:16:59.783Z,89.73
2022-09-12T05:19:28.148Z,89.38
2022-09-12T05:21:54.896Z,89.39
2022-09-12T05:24:22.235Z,89.45
2022-09-12T05:26:48.984Z,89.28
2022-09-12T05:29:16.409Z,89.07
2022-09-12T05:31:43.346Z,89.18
2022-09-12T05:34:10.419Z,89.21
2022-09-12T05:36:37.652Z,89.05
2022-09-12T05:39:04.867Z,88.83
2022-09-12T05:41:34.332Z,88.92
2022-09-12T05:44:03.616Z,88.87
2022-09-12T05:46:32.421Z,88.93
2022-09-12T05:49:04.801Z,88.87
2022-09-12T05:51:38.294Z,88.71
2022-09-12T05:54:06.576Z,88.64
2022-09-12T05:56:37.117Z,88.60
2022-09-12T05:59:06.556Z,88.51
2022-09-12T06:01:35.220Z,88.64
2022-09-12T06:04:04.656Z,88.50
2022-09-12T06:06:33.239Z,88.28
2022-09-12T06:09:01.907Z,88.29
2022-09-12T06:11:31.582Z,88.25
2022-09-12T06:13:59.361Z,88.22
2022-09-12T06:16:29.186Z,88.03
2022-09-12T06:19:00.936Z,87.98
2022-09-12T06:21:28.939Z,87.93
2022-09-12T06:23:55.889Z,87.71
2022-09-12T06:26:25.635Z,87.67
2022-09-12T06:28:54.437Z,87.71
2022-09-12T06:31:25.255Z,87.69
2022-09-12T06:33:53.822Z,87.44
2022-09-12T06:36:32.774Z,87.46
2022-09-12T06:39:06.280Z,87.34
2022-09-12T06:41:33.665Z,87.25
2022-09-12T06:44:01.824Z,87.33
2022-09-12T06:46:29.239Z,87.26
2022-09-12T06:48:56.965Z,87.19
2022-09-12T06:51:24.615Z,86.96
2022-09-12T06:53:52.351Z,86.80
2022-09-12T06:56:21.372Z,86.81
2022-09-12T06:58:49.955Z,86.88
2022-09-12T07:01:19.544Z,86.82
2022-09-12T07:03:52.388Z,86.83
2022-09-12T07:06:21.968Z,86.74
2022-09-12T07:08:48.923Z,86.74
2022-09-12T07:11:20.173Z,86.79
2022-09-12T07:13:49.827Z,86.57
2022-09-12T07:16:19.608Z,86.76
2022-09-12T07:18:58.667Z,86.75
2022-09-12T07:21:25.821Z,86.85
2022-09-12T07:23:55.396Z,86.77
2022-09-12T07:26:22.243Z,86.77
2022-09-12T07:28:54.174Z,86.48
2022-09-12T07:31:23.773Z,86.71
2022-09-12T07:33:54.641Z,86.82
2022-09-12T07:36:24.689Z,86.83
2022-09-12T07:38:57.528Z,86.86
2022-09-12T07:41:30.034Z,86.99
2022-09-12T07:43:59.103Z,86.87
2022-09-12T07:46:27.523Z,86.82
2022-09-12T07:48:56.804Z,86.93
2022-09-12T07:51:25.274Z,86.86
2022-09-12T07:53:52.197Z,86.97
2022-09-12T07:56:20.034Z,86.93
2022-09-12T07:58:47.677Z,86.87
2022-09-12T08:01:19.131Z,86.81
2022-09-12T08:03:48.237Z,86.99
2022-09-12T08:06:20.320Z,86.91
2022-09-12T08:08:48.436Z,87.04
2022-09-12T08:11:17.156Z,86.68
2022-09-12T08:13:44.930Z,86.89
2022-09-12T08:16:21.127Z,86.79
2022-09-12T08:18:48.723Z,86.86
2022-09-12T08:21:18.307Z,86.65
2022-09-12T08:23:45.459Z,86.47
2022-09-12T08:26:13.136Z,86.41
2022-09-12T08:28:41.097Z,86.29
2022-09-12T08:31:12.002Z,86.31
2022-09-12T08:33:39.096Z,86.29
2022-09-12T08:36:11.004Z,86.20
2022-09-12T08:38:39.725Z,86.12
2022-09-12T08:41:18.642Z,85.78
2022-09-12T08:43:52.073Z,86.25
2022-09-12T08:46:29.052Z,86.83
2022-09-12T08:48:58.473Z,86.96
2022-09-12T08:51:26.212Z,86.92
2022-09-12T08:53:56.449Z,86.54
2022-09-12T08:56:28.435Z,86.41
2022-09-12T08:58:57.877Z,86.45
2022-09-12T09:01:32.810Z,86.51
2022-09-12T09:04:14.448Z,86.53
2022-09-12T09:07:01.532Z,86.72
2022-09-12T09:09:43.425Z,86.64
2022-09-12T09:12:21.965Z,86.61
2022-09-12T09:14:56.567Z,86.41
2022-09-12T09:17:30.077Z,86.40
2022-09-12T09:20:12.421Z,86.27
2022-09-12T09:22:42.219Z,86.43
2022-09-12T09:25:23.037Z,86.21
2022-09-12T09:28:06.064Z,86.22
2022-09-12T09:30:36.062Z,86.13
2022-09-12T09:33:05.287Z,86.11
2022-09-12T09:35:38.951Z,86.08
2022-09-12T09:38:15.396Z,85.78
2022-09-12T09:40:50.008Z,85.95
2022-09-12T09:43:28.948Z,85.90
2022-09-12T09:45:57.904Z,85.81
2022-09-12T09:48:33.554Z,85.57
2022-09-12T09:51:03.177Z,85.78
2022-09-12T09:53:51.869Z,85.57
2022-09-12T09:56:27.875Z,85.60
2022-09-12T09:58:54.918Z,85.42
2022-09-12T10:01:22.293Z,85.42
2022-09-12T10:03:54.273Z,85.28
2022-09-12T10:06:21.021Z,85.16
2022-09-12T10:08:49.579Z,85.09
2022-09-12T10:11:16.368Z,84.87
2022-09-12T10:14:04.610Z,84.80
2022-09-12T10:16:48.316Z,85.00
2022-09-12T10:19:26.715Z,85.00
2022-09-12T10:21:56.967Z,84.88
2022-09-12T10:24:47.198Z,84.85
2022-09-12T10:27:20.630Z,84.79
2022-09-12T10:30:14.613Z,84.87
2022-09-12T10:32:45.095Z,84.81
2022-09-12T10:35:24.011Z,84.96
2022-09-12T10:38:02.414Z,84.77
2022-09-12T10:40:37.774Z,84.56
2022-09-12T10:43:17.799Z,84.62
2022-09-12T10:45:44.705Z,84.39
2022-09-12T10:48:31.988Z,84.13
2022-09-12T10:51:00.148Z,84.19
2022-09-12T10:53:33.620Z,84.06
2022-09-12T10:56:28.031Z,84.03
2022-09-12T10:59:21.735Z,84.00
2022-09-12T11:02:00.400Z,83.83
2022-09-12T11:04:58.114Z,83.85
2022-09-12T11:07:46.879Z,83.54
2022-09-12T11:10:43.766Z,83.36
2022-09-12T11:13:25.545Z,83.36
2022-09-12T11:16:05.911Z,83.26
2022-09-12T11:19:03.758Z,83.14
2022-09-12T11:21:30.628Z,83.04
2022-09-12T11:23:57.366Z,83.08
2022-09-12T11:26:34.242Z,83.06
2022-09-12T11:29:01.002Z,82.33
2022-09-12T11:31:50.397Z,81.68
2022-09-12T11:34:36.872Z,81.38
2022-09-12T11:37:10.433Z,80.86
2022-09-12T11:39:44.813Z,81.08
2022-09-12T11:42:18.282Z,80.90
2022-09-12T11:44:50.121Z,80.08
2022-09-12T11:47:18.727Z,80.44
2022-09-12T11:49:49.984Z,79.55
2022-09-12T11:52:27.055Z,78.93
2022-09-12T11:55:03.879Z,79.46
2022-09-12T11:57:53.098Z,80.17
2022-09-12T12:00:24.649Z,80.29
2022-09-12T12:03:00.775Z,79.76
2022-09-12T12:05:47.880Z,79.60
2022-09-12T12:08:14.840Z,79.32
2022-09-12T12:10:44.279Z,79.38
2022-09-12T12:13:20.037Z,79.21
2022-09-12T12:16:11.526Z,79.01
2022-09-12T12:18:40.171Z,78.17
2022-09-12T12:21:34.737Z,78.53
2022-09-12T12:24:07.508Z,76.38
2022-09-12T12:26:40.676Z,77.09
2022-09-12T12:29:13.415Z,77.27
2022-09-12T12:31:59.136Z,77.82
2022-09-12T12:34:30.887Z,77.47
2022-09-12T12:36:59.205Z,77.69
2022-09-12T12:39:32.123Z,76.98
2022-09-12T12:42:03.049Z,77.26
2022-09-12T12:44:45.179Z,76.81
2022-09-12T12:47:20.742Z,76.66
2022-09-12T12:50:04.445Z,76.59
2022-09-12T12:52:40.724Z,76.80
2022-09-12T12:55:17.202Z,75.86
2022-09-12T12:57:51.578Z,76.51
2022-09-12T13:00:21.388Z,76.79
2022-09-12T13:02:58.057Z,76.90
2022-09-12T13:05:27.224Z,76.76
2022-09-12T13:08:03.726Z,76.50
2022-09-12T13:10:31.288Z,77.15
2022-09-12T13:13:02.046Z,76.12
2022-09-12T13:15:50.919Z,75.09
2022-09-12T13:18:25.462Z,76.01
2022-09-12T13:20:59.888Z,76.02
2022-09-12T13:23:31.646Z,76.04
2022-09-12T13:26:00.933Z,76.37
2022-09-12T13:28:31.292Z,75.96
2022-09-12T13:30:58.560Z,76.22
2022-09-12T13:33:34.309Z,76.41
2022-09-12T13:36:29.205Z,76.43
2022-09-12T13:39:20.209Z,76.39
2022-09-12T13:41:56.225Z,75.73
2022-09-12T13:44:24.720Z,75.31
2022-09-12T13:46:52.476Z,74.22
2022-09-12T13:49:37.632Z,75.15
2022-09-12T13:52:24.767Z,74.87
2022-09-12T13:54:55.006Z,74.89
2022-09-12T13:57:31.595Z,75.18
2022-09-12T13:59:59.991Z,75.57
2022-09-12T14:02:28.890Z,75.86
2022-09-12T14:05:11.485Z,75.27
2022-09-12T14:07:54.473Z,74.98
2022-09-12T14:10:24.086Z,75.27
2022-09-12T14:12:52.860Z,75.99
2022-09-12T14:15:26.575Z,76.30
2022-09-12T14:17:56.606Z,76.54
2022-09-12T14:20:24.381Z,76.66
2022-09-12T14:22:52.581Z,76.19
2022-09-12T14:25:25.568Z,76.31
2022-09-12T14:27:54.958Z,75.06
2022-09-12T14:30:31.981Z,75.89
2022-09-12T14:33:22.259Z,74.03
2022-09-12T14:35:52.017Z,74.54
2022-09-12T14:38:18.960Z,75.05
2022-09-12T14:40:59.950Z,75.82
2022-09-12T14:43:34.060Z,76.08
2022-09-12T14:46:07.854Z,75.51
2022-09-12T14:48:46.796Z,75.46
2022-09-12T14:51:26.112Z,76.35
2022-09-12T14:53:53.234Z,75.86
2022-09-12T14:56:37.045Z,76.31
2022-09-12T14:59:30.972Z,76.31
2022-09-12T15:02:22.608Z,76.69
2022-09-12T15:04:52.545Z,76.24
2022-09-12T15:07:29.756Z,76.39
2022-09-12T15:09:59.037Z,76.86
2022-09-12T15:12:26.453Z,75.67
2022-09-12T15:14:54.239Z,75.09
2022-09-12T15:17:21.031Z,73.48
2022-09-12T15:19:48.130Z,73.64
2022-09-12T15:22:15.156Z,72.03
2022-09-12T15:24:42.013Z,72.72
2022-09-12T15:27:11.974Z,71.57
2022-09-12T15:29:39.610Z,72.80
2022-09-12T15:32:06.881Z,73.06
2022-09-12T15:34:33.896Z,73.64
2022-09-12T15:37:00.950Z,73.96
2022-09-12T15:39:27.903Z,72.76
2022-09-12T15:41:54.777Z,73.20
2022-09-12T15:44:23.802Z,73.25
2022-09-12T15:46:50.633Z,72.70
2022-09-12T15:49:17.572Z,73.41
2022-09-12T15:51:44.445Z,73.86
2022-09-12T15:54:15.179Z,73.99
2022-09-12T15:56:42.096Z,74.22
2022-09-12T15:59:09.099Z,74.29
2022-09-12T16:01:35.990Z,73.86
2022-09-12T16:04:03.881Z,73.12
2022-09-12T16:06:37.309Z,72.96
2022-09-12T16:09:04.493Z,72.54
2022-09-12T16:11:31.280Z,72.58
2022-09-12T16:13:58.369Z,73.17
2022-09-12T16:16:25.361Z,72.86
2022-09-12T16:18:52.324Z,73.40
2022-09-12T16:21:19.184Z,71.80
2022-09-12T16:23:47.415Z,72.29
2022-09-12T16:26:15.040Z,71.91
2022-09-12T16:28:42.444Z,72.57
2022-09-12T16:31:12.901Z,72.40
2022-09-12T16:33:40.701Z,71.55
2022-09-12T16:36:12.981Z,72.19
2022-09-12T16:38:51.192Z,72.64
2022-09-12T16:41:20.037Z,71.24
2022-09-12T16:43:47.628Z,71.48
2022-09-12T16:46:19.075Z,71.58
2022-09-12T16:48:52.670Z,71.11
2022-09-12T16:51:23.005Z,71.24
2022-09-12T16:53:50.487Z,71.38
2022-09-12T16:56:17.615Z,71.32
2022-09-12T16:58:45.310Z,71.74
2022-09-12T17:01:23.842Z,70.44
2022-09-12T17:03:55.277Z,71.32
2022-09-12T17:06:22.463Z,70.67
2022-09-12T17:08:51.060Z,70.94
2022-09-12T17:11:20.629Z,71.87
2022-09-12T17:14:06.467Z,72.29
2022-09-12T17:16:39.570Z,71.50
2022-09-12T17:19:09.204Z,71.51
2022-09-12T17:21:36.567Z,71.93
2022-09-12T17:24:04.818Z,71.50
2022-09-12T17:26:31.729Z,71.45
2022-09-12T17:28:58.707Z,71.41
2022-09-12T17:31:26.831Z,70.79
2022-09-12T17:33:58.441Z,70.87
2022-09-12T17:36:26.666Z,70.98
2022-09-12T17:38:54.276Z,70.57
2022-09-12T17:41:27.582Z,68.34
2022-09-12T17:43:57.250Z,69.04
2022-09-12T17:46:38.781Z,69.05
2022-09-12T17:49:08.181Z,68.22
2022-09-12T17:51:35.618Z,68.68
2022-09-12T17:54:06.115Z,69.02
2022-09-12T17:56:34.619Z,69.61
2022-09-12T17:59:02.020Z,70.14
2022-09-12T18:01:48.187Z,69.40
2022-09-12T18:04:15.804Z,68.20
2022-09-12T18:06:47.992Z,68.52
2022-09-12T18:09:18.008Z,68.94
2022-09-12T18:11:45.157Z,68.84
2022-09-12T18:14:14.236Z,68.65
2022-09-12T18:16:43.196Z,68.75
2022-09-12T18:19:11.247Z,68.42
2022-09-12T18:21:38.492Z,68.41
2022-09-12T18:24:05.769Z,68.82
2022-09-12T18:26:33.202Z,68.83
2022-09-12T18:29:00.089Z,67.96
2022-09-12T18:31:29.726Z,69.18
2022-09-12T18:33:57.288Z,69.04
2022-09-12T18:36:24.162Z,69.08
2022-09-12T18:38:51.197Z,68.83
2022-09-12T18:41:22.797Z,69.08
2022-09-12T18:43:53.380Z,69.50
2022-09-12T18:46:20.314Z,69.97
2022-09-12T18:48:47.499Z,70.49
2022-09-12T18:51:17.991Z,69.68
2022-09-12T18:53:57.001Z,69.94
2022-09-12T18:56:26.475Z,70.21
2022-09-12T18:58:56.508Z,70.32
2022-09-12T19:01:29.266Z,70.46
2022-09-12T19:03:56.904Z,70.90
2022-09-12T19:06:28.619Z,71.21
2022-09-12T19:08:57.408Z,71.04
2022-09-12T19:11:26.114Z,70.62
2022-09-12T19:13:54.313Z,71.16
2022-09-12T19:16:24.001Z,71.58
2022-09-12T19:18:52.424Z,71.48
2022-09-12T19:21:24.638Z,71.22
2022-09-12T19:23:53.904Z,70.61
2022-09-12T19:26:21.295Z,71.16
2022-09-12T19:28:48.556Z,70.99
2022-09-12T19:31:19.053Z,71.29
2022-09-12T19:33:46.990Z,71.35
2022-09-12T19:36:40.799Z,70.67
2022-09-12T19:39:04.103Z,71.29
2022-09-12T19:41:31.205Z,71.71
2022-09-12T19:43:58.321Z,70.75
2022-09-12T19:46:26.761Z,71.92
2022-09-12T19:48:54.026Z,71.56
2022-09-12T19:51:22.183Z,71.55
2022-09-12T19:53:50.389Z,71.32
2022-09-12T19:56:17.326Z,71.71
2022-09-12T19:58:46.758Z,71.72
2022-09-12T20:01:18.907Z,71.64
2022-09-12T20:03:46.514Z,71.93
2022-09-12T20:06:17.738Z,71.73
2022-09-12T20:08:45.772Z,71.58
2022-09-12T20:11:16.856Z,71.57
2022-09-12T20:13:44.988Z,71.91
2022-09-12T20:16:21.399Z,71.83
2022-09-12T20:18:56.707Z,71.24
2022-09-12T20:21:25.737Z,70.90
2022-09-12T20:23:52.906Z,70.23
2022-09-12T20:26:20.501Z,69.00
2022-09-12T20:28:47.865Z,70.31
2022-09-12T20:31:16.127Z,70.49
2022-09-12T20:33:44.684Z,69.82
2022-09-12T20:36:16.325Z,70.29
2022-09-12T20:38:50.635Z,70.17
2022-09-12T20:41:18.966Z,70.09
2022-09-12T20:43:49.125Z,70.00
2022-09-12T20:46:20.992Z,70.57
2022-09-12T20:48:49.354Z,70.00
2022-09-12T20:51:16.764Z,70.13
2022-09-12T20:53:43.711Z,70.42
2022-09-12T20:56:10.485Z,70.50
2022-09-12T20:58:41.693Z,70.35
2022-09-12T21:01:11.821Z,70.23
2022-09-12T21:03:39.640Z,70.23
2022-09-12T21:06:07.649Z,70.00
2022-09-12T21:08:35.645Z,69.40
2022-09-12T21:11:02.501Z,70.04
2022-09-12T21:13:29.288Z,70.24
2022-09-12T21:16:16.842Z,70.13
2022-09-12T21:18:44.644Z,70.10
2022-09-12T21:21:13.162Z,70.59
2022-09-12T21:23:40.212Z,70.84
2022-09-12T21:26:07.891Z,70.76
2022-09-12T21:28:34.817Z,70.32
2022-09-12T21:31:01.734Z,70.25
2022-09-12T21:33:28.670Z,70.93
2022-09-12T21:35:55.507Z,70.93
2022-09-12T21:38:22.416Z,70.87
2022-09-12T21:40:49.512Z,70.62
2022-09-12T21:43:16.432Z,70.97
2022-09-12T21:45:43.246Z,71.10
2022-09-12T21:48:10.212Z,71.44
2022-09-12T21:50:36.963Z,71.26
2022-09-12T21:53:03.969Z,71.55
2022-09-12T21:55:31.210Z,71.46
2022-09-12T21:57:58.052Z,71.44
2022-09-12T22:00:24.955Z,71.52
2022-09-12T22:02:51.816Z,71.53
2022-09-12T22:05:19.630Z,71.77
2022-09-12T22:07:46.764Z,71.81
2022-09-12T22:10:13.569Z,71.94
2022-09-12T22:12:45.361Z,72.02
2022-09-12T22:15:38.819Z,71.68
2022-09-12T22:18:00.638Z,71.77
2022-09-12T22:20:27.505Z,71.74
2022-09-12T22:23:12.783Z,72.28
2022-09-12T22:25:39.931Z,72.21
2022-09-12T22:28:07.108Z,72.18
2022-09-12T22:30:33.979Z,72.45
2022-09-12T22:33:00.763Z,72.30
2022-09-12T22:35:27.722Z,72.07
2022-09-12T22:37:54.481Z,72.57
2022-09-12T22:40:21.415Z,72.72
2022-09-12T22:42:52.024Z,72.72
2022-09-12T22:45:19.296Z,72.93
2022-09-12T22:47:46.365Z,72.93
2022-09-12T22:50:13.257Z,73.12
2022-09-12T22:52:40.492Z,72.88
2022-09-12T22:55:07.837Z,73.35
2022-09-12T22:57:34.824Z,73.30
2022-09-12T23:00:02.212Z,73.22
2022-09-12T23:02:29.693Z,73.40
2022-09-12T23:04:56.544Z,73.69
2022-09-12T23:07:23.342Z,73.64
2022-09-12T23:09:50.164Z,73.56
2022-09-12T23:12:17.118Z,73.78
2022-09-12T23:14:44.123Z,73.90
2022-09-12T23:17:10.977Z,73.74
2022-09-12T23:19:37.864Z,73.90
2022-09-12T23:22:04.715Z,73.67
2022-09-12T23:24:31.592Z,73.77
2022-09-12T23:26:59.604Z,73.93
2022-09-12T23:29:27.208Z,73.77
2022-09-12T23:31:53.998Z,73.70
2022-09-12T23:34:20.902Z,73.79
2022-09-12T23:36:47.689Z,73.74
2022-09-12T23:39:14.494Z,73.41
2022-09-12T23:41:41.285Z,73.63
2022-09-12T23:44:08.139Z,73.92
2022-09-12T23:46:34.948Z,73.86
2022-09-12T23:49:01.784Z,73.79
2022-09-12T23:51:28.547Z,73.82
2022-09-12T23:53:55.437Z,73.79
2022-09-12T23:56:22.291Z,73.83
2022-09-12T23:58:49.301Z,73.76
